• Join FlightAware (Why Join?)
  • Login
  • US Flag 
05:13AM EDT


 

Airport Tracker/Info


-or-


 

Live Flight TrackerFlight Track Log ✈ XOJ549 ✈ 27-Jun-2013 ✈ KCRP - KHTO

Flight Track Log - Related Links

Times and Time Zones

All times are in EDT time to prevent confusion due to time zone crossing. See the XOJ549 flight status page for this flight to view local times or setup timezone preferences in your user account.

Time Position Orientation Groundspeed Altitude Reporting Facility
EDT Latitude Longitude Course Direction KTS MPH feet Rate Location/Type
10:39AM 27.7533 -97.4886 131° Southeast 173 199 1,300  Level Houston Center
10:39AM 27.7336 -97.4631 131° Southeast 186 214 3,300 3,180 Climbing Houston Center
10:40AM 27.7403 -97.4264 78° East 238 274 5,300 3,360 Climbing Houston Center
10:41AM 27.8094 -97.4128 10° North 248 285 8,900 3,120 Climbing Houston Center
10:42AM 27.8831 -97.3956 12° North 266 306 11,900 2,700 Climbing Houston Center
10:43AM 27.9811 -97.3681 14° North 304 350 14,600 2,520 Climbing Houston Center
10:44AM 28.0606 -97.3017 36° Northeast 343 395 17,200 2,460 Climbing Houston Center
10:45AM 28.1375 -97.2311 39° Northeast 354 407 19,800 2,460 Climbing Houston Center
10:46AM 28.2161 -97.1583 39° Northeast 362 417 22,400 2,340 Climbing Houston Center
10:47AM 28.2969 -97.0856 38° Northeast 368 423 24,700 2,160 Climbing Houston Center
10:48AM 28.3894 -96.9814 45° Northeast 389 448 26,900 1,980 Climbing Houston Center
10:49AM 28.4478 -96.8747 58° Northeast 400 460 28,800 1,740 Climbing Houston Center
10:50AM 28.5069 -96.7653 58° Northeast 404 465 30,500 1,680 Climbing Houston Center
10:51AM 28.5678 -96.6503 59° Northeast 416 479 32,300 1,620 Climbing Houston Center
10:53AM 28.6297 -96.5358 58° Northeast 424 488 33,900 1,620 Climbing Houston Center
10:54AM 28.7039 -96.3964 59° Northeast 430 495 35,700 1,500 Climbing Houston Center
10:55AM 28.7661 -96.2792 59° Northeast 433 498 37,100 1,260 Climbing Houston Center
10:56AM 28.8281 -96.1625 59° Northeast 433 498 38,400 1,140 Climbing Houston Center
10:57AM 28.8900 -96.0458 59° Northeast 434 499 39,500 1,200 Climbing Houston Center
10:58AM 28.9489 -95.9294 60° Northeast 428 493 41,000 1,260 Climbing Houston Center
10:59AM 29.0200 -95.7958 59° Northeast 414 476 42,200 840 Climbing Houston Center
11:00AM 29.0778 -95.6844 59° Northeast 410 472 42,800 480 Climbing Houston Center
11:01AM 29.1364 -95.5719 59° Northeast 413 475 43,200 300 Climbing Houston Center
11:02AM 29.1961 -95.4569 59° Northeast 420 483 43,500 300 Climbing Houston Center
11:03AM 29.2550 -95.3431 59° Northeast 418 481 43,900 420 Climbing Houston Center
11:04AM 29.3267 -95.2050 59° Northeast 420 483 44,400 300 Climbing Houston Center
11:05AM 29.3867 -95.0903 59° Northeast 420 483 44,600 240 Climbing Houston Center
11:06AM 29.4417 -94.9819 60° Northeast 416 479 45,000 180 Climbing Houston Center
11:07AM 29.5022 -94.8672 59° Northeast 419 482 45,000  Level Houston Center
11:08AM 29.5731 -94.7269 60° Northeast 423 487 45,000  Level Houston Center
11:09AM 29.6325 -94.6094 60° Northeast 427 491 45,000  Level Houston Center
11:10AM 29.6928 -94.4922 59° Northeast 428 493 45,000  Level Houston Center
11:11AM 29.7519 -94.3756 60° Northeast 424 488 45,000  Level Houston Center
11:12AM 29.8131 -94.2564 59° Northeast 431 496 45,000  Level Houston Center
11:13AM 29.8731 -94.1375 60° Northeast 430 495 45,000  Level Houston Center
11:14AM 29.9450 -93.9944 60° Northeast 431 496 45,000  Level Houston Center
11:15AM 30.0042 -93.8769 60° Northeast 427 491 45,000  Level Houston Center
11:16AM 30.0625 -93.7586 60° Northeast 428 493 45,000  Level Houston Center
11:17AM 30.1203 -93.6417 60° Northeast 423 487 45,000  Level Houston Center
11:18AM 30.1767 -93.5231 61° Northeast 426 490 45,000  Level Houston Center
11:19AM 30.2464 -93.3831 60° Northeast 428 493 45,000  Level Houston Center
11:20AM 30.3044 -93.2683 60° Northeast 423 487 45,000  Level Houston Center
11:21AM 30.3611 -93.1533 60° Northeast 419 482 45,000  Level Houston Center
11:23AM 30.4175 -93.0381 60° Northeast 419 482 45,000  Level Houston Center
11:24AM 30.4858 -92.8986 60° Northeast 417 480 45,000  Level Houston Center
11:25AM 30.5431 -92.7811 60° Northeast 421 484 45,000  Level Houston Center
11:26AM 30.5992 -92.6636 61° Northeast 422 486 45,000  Level Houston Center
11:27AM 30.6569 -92.5422 61° Northeast 422 486 45,000  Level Houston Center
11:28AM 30.7150 -92.4250 60° Northeast 424 488 45,000  Level Houston Center
11:29AM 30.7825 -92.2828 61° Northeast 423 487 45,000  Level Houston Center
11:30AM 30.8397 -92.1631 61° Northeast 425 489 45,000  Level Houston Center
11:31AM 30.8975 -92.0422 61° Northeast 428 493 45,000  Level Houston Center
11:32AM 30.9561 -91.9197 61° Northeast 433 498 45,000  Level Houston Center
11:33AM 31.0144 -91.7983 61° Northeast 433 498 45,000  Level Houston Center
11:34AM 31.0842 -91.6528 61° Northeast 431 496 45,000  Level Houston Center
11:35AM 31.1422 -91.5308 61° Northeast 432 497 45,000  Level Houston Center
11:36AM 31.1969 -91.4119 62° Northeast 431 496 45,000  Level Houston Center
11:37AM 31.2561 -91.2872 61° Northeast 436 502 45,000  Level Houston Center
11:38AM 31.3156 -91.1606 61° Northeast 436 502 45,000  Level Houston Center
11:39AM 31.3839 -91.0144 61° Northeast 433 498 45,000  Level Houston Center
11:40AM 31.4414 -90.8889 62° Northeast 435 501 45,000  Level Houston Center
11:41AM 31.4983 -90.7653 62° Northeast 433 498 45,000  Level Houston Center
11:42AM 31.5564 -90.6389 62° Northeast 436 502 45,000  Level Houston Center
11:43AM 31.6144 -90.5131 62° Northeast 438 504 45,000  Level Houston Center
11:44AM 31.6722 -90.3867 62° Northeast 439 505 45,000  Level Houston Center
11:45AM 31.7303 -90.2592 62° Northeast 441 507 45,000  Level Houston Center
11:46AM 31.8006 -90.1053 62° Northeast 443 510 45,000  Level Houston Center
11:47AM 31.8586 -89.9764 62° Northeast 446 513 45,000  Level Houston Center
11:48AM 31.9089 -89.8556 64° Northeast 435 501 45,000  Level Memphis Center
11:49AM 31.9689 -89.7256 61° Northeast 435 501 45,000  Level Memphis Center
11:50AM 32.0286 -89.5978 61° Northeast 435 501 45,000  Level Memphis Center
11:51AM 32.0925 -89.4525 63° Northeast 435 501 45,000  Level Memphis Center
11:52AM 32.1519 -89.3194 62° Northeast 441 507 45,000  Level Memphis Center
11:53AM 32.2092 -89.1911 62° Northeast 447 514 45,000  Level Memphis Center
11:54AM 32.2664 -89.0625 62° Northeast 447 514 45,000  Level Memphis Center
11:55AM 32.3194 -88.9389 63° Northeast 435 501 45,000  Level Memphis Center
11:56AM 32.3742 -88.8175 62° Northeast 424 488 45,000  Level Memphis Center
11:57AM 32.4292 -88.7008 61° Northeast 412 474 45,000  Level Memphis Center
11:58AM 32.4922 -88.5792 58° Northeast 417 480 45,000  Level Memphis Center
11:59AM 32.5531 -88.4644 58° Northeast 417 480 45,000  Level Memphis Center
12:00PM 32.6139 -88.3422 59° Northeast 422 486 45,000  Level Memphis Center
12:03PM 32.7469 -88.0792 59° Northeast 420 483 45,000  Level Atlanta Center
12:04PM 32.8200 -87.9517 56° Northeast 420 483 45,000  Level Atlanta Center
12:05PM 32.8758 -87.8353 60° Northeast 415 478 45,000  Level Atlanta Center
12:06PM 32.9400 -87.7119 58° Northeast 415 478 45,000  Level Atlanta Center
12:07PM 33.0000 -87.5931 59° Northeast 415 478 45,000  Level Atlanta Center
12:08PM 33.0489 -87.4836 62° Northeast 415 478 45,000  Level Atlanta Center
12:09PM 33.1086 -87.3669 59° Northeast 415 478 45,000  Level Atlanta Center
12:10PM 33.1681 -87.2475 59° Northeast 415 478 45,000  Level Atlanta Center
12:11PM 33.2294 -87.1281 58° Northeast 415 478 45,000  Level Atlanta Center
12:12PM 33.2864 -87.0258 56° Northeast 415 478 45,000  Level Atlanta Center
12:13PM 33.3481 -86.8886 62° Northeast 415 478 45,000  Level Atlanta Center
12:14PM 33.4072 -86.7686 59° Northeast 415 478 45,000  Level Atlanta Center
12:15PM 33.4681 -86.6486 59° Northeast 415 478 45,000  Level Atlanta Center
12:16PM 33.5269 -86.5283 60° Northeast 415 478 45,000  Level Atlanta Center
12:17PM 33.5858 -86.4078 60° Northeast 415 478 45,000  Level Atlanta Center
12:18PM 33.6444 -86.2872 60° Northeast 415 478 45,000  Level Atlanta Center
12:19PM 33.7028 -86.1664 60° Northeast 415 478 45,000  Level Atlanta Center
12:20PM 33.7633 -86.0478 58° Northeast 415 478 45,000  Level Atlanta Center
12:21PM 33.8217 -85.9267 60° Northeast 415 478 45,000  Level Atlanta Center
12:22PM 33.8903 -85.7981 57° Northeast 415 478 45,000  Level Atlanta Center
12:23PM 33.9483 -85.6767 60° Northeast 408 470 45,000  Level Atlanta Center
12:24PM 34.0061 -85.5547 60° Northeast 408 470 45,000  Level Atlanta Center
12:25PM 34.0597 -85.4456 59° Northeast 414 476 45,000  Level Atlanta Center
12:26PM 34.1175 -85.3211 61° Northeast 414 476 45,000  Level Atlanta Center
12:27PM 34.1769 -85.1989 60° Northeast 414 476 45,000  Level Atlanta Center
12:28PM 34.2386 -85.0742 59° Northeast 420 483 45,000  Level Atlanta Center
12:29PM 34.2961 -84.9492 61° Northeast 420 483 45,000  Level Atlanta Center
12:30PM 34.3594 -84.8089 61° Northeast 420 483 45,000  Level Atlanta Center
12:31PM 34.4208 -84.6808 60° Northeast 420 483 45,000  Level Atlanta Center
12:32PM 34.4797 -84.5528 61° Northeast 420 483 45,000  Level Atlanta Center
12:33PM 34.5386 -84.4244 61° Northeast 430 495 45,000  Level Atlanta Center
12:34PM 34.5956 -84.2986 61° Northeast 430 495 45,000  Level Atlanta Center
12:35PM 34.6519 -84.1700 62° Northeast 430 495 45,000  Level Atlanta Center
12:36PM 34.7106 -84.0464 60° Northeast 425 489 45,000  Level Atlanta Center
12:37PM 34.7667 -83.9175 62° Northeast 425 489 45,000  Level Atlanta Center
12:38PM 34.8231 -83.7983 60° Northeast 433 498 45,000  Level Atlanta Center
12:39PM 34.8831 -83.6717 60° Northeast 433 498 45,000  Level Atlanta Center
12:40PM 34.9389 -83.5447 62° Northeast 433 498 45,000  Level Atlanta Center
12:41PM 34.9969 -83.4150 61° Northeast 428 493 45,000  Level Atlanta Center
12:42PM 35.0506 -83.2981 61° Northeast 435 501 45,000  Level Atlanta Center
12:43PM 35.1203 -83.1397 62° Northeast 441 507 45,000  Level Atlanta Center
12:44PM 35.1797 -83.0097 61° Northeast 435 501 45,000  Level Atlanta Center
12:45PM 35.2392 -82.8792 61° Northeast 441 507 45,000  Level Atlanta Center
12:46PM 35.2983 -82.7408 62° Northeast 441 507 45,000  Level Atlanta Center
12:47PM 35.3575 -82.6128 60° Northeast 441 507 45,000  Level Atlanta Center
12:48PM 35.4161 -82.4767 62° Northeast 444 511 45,000  Level Atlanta Center
12:49PM 35.4769 -82.3428 61° Northeast 444 511 45,000  Level Atlanta Center
12:50PM 35.5356 -82.2039 63° Northeast 444 511 45,000  Level Atlanta Center
12:51PM 35.5939 -82.0697 62° Northeast 444 511 45,000  Level Atlanta Center
12:52PM 35.6542 -81.9328 62° Northeast 444 511 45,000  Level Atlanta Center
12:53PM 35.7144 -81.7931 62° Northeast 449 517 45,000  Level Atlanta Center
12:54PM 35.7744 -81.6533 62° Northeast 449 517 45,000  Level Atlanta Center
12:55PM 35.8281 -81.5286 62° Northeast 457 526 45,000  Level Atlanta Center
12:56PM 35.8900 -81.3883 61° Northeast 457 526 45,000  Level Atlanta Center
12:57PM 35.9450 -81.2456 65° Northeast 457 526 45,000  Level Atlanta Center
12:58PM 36.0103 -81.0919 62° Northeast 457 526 45,000  Level Atlanta Center
12:59PM 36.0694 -80.9508 63° Northeast 457 526 45,000  Level Atlanta Center
01:00PM 36.1264 -80.8100 63° Northeast 452 520 45,000  Level Atlanta Center
01:01PM 36.1831 -80.6714 63° Northeast 452 520 45,000  Level Atlanta Center
01:02PM 36.2792 -80.4386 63° Northeast 470 541 45,000  Level Washington Center
01:03PM 36.3389 -80.2953 63° Northeast 464 534 45,000  Level Washington Center
01:04PM 36.3833 -80.1742 65° Northeast 449 517 45,000  Level Washington Center
01:05PM 36.4450 -80.0331 61° Northeast 449 517 45,000  Level Washington Center
01:06PM 36.5003 -79.8917 64° Northeast 449 517 45,000  Level Washington Center
01:07PM 36.5642 -79.7347 63° Northeast 449 517 45,000  Level Washington Center
01:08PM 36.6192 -79.5953 64° Northeast 454 522 45,000  Level Washington Center
01:09PM 36.6758 -79.4533 64° Northeast 454 522 45,000  Level Washington Center
01:10PM 36.7328 -79.3083 64° Northeast 454 522 45,000  Level Washington Center
01:11PM 36.7844 -79.1811 63° Northeast 454 522 45,000  Level Washington Center
01:12PM 36.8408 -79.0383 64° Northeast 459 528 45,000  Level Washington Center
01:13PM 36.8969 -78.8956 64° Northeast 454 522 45,000  Level Washington Center
01:14PM 36.9597 -78.7369 64° Northeast 454 522 45,000  Level Washington Center
01:15PM 37.0156 -78.5961 64° Northeast 454 522 45,000  Level Washington Center
01:16PM 37.0733 -78.4553 63° Northeast 454 522 45,000  Level Washington Center
01:17PM 37.1486 -78.3486 48° Northeast 448 516 45,000  Level Washington Center
01:18PM 37.2328 -78.2292 48° Northeast 448 516 45,000  Level Washington Center
01:19PM 37.3208 -78.1067 48° Northeast 441 507 45,000  Level Washington Center
01:20PM 37.4047 -77.9842 49° Northeast 434 499 45,000  Level Washington Center
01:21PM 37.4883 -77.8664 48° Northeast 439 505 45,000  Level Washington Center
01:22PM 37.5719 -77.7483 48° Northeast 445 512 45,000  Level Washington Center
01:23PM 37.6556 -77.6272 49° Northeast 450 518 45,000  Level Washington Center
01:24PM 37.7367 -77.5086 49° Northeast 450 518 45,000  Level Washington Center
01:25PM 37.8197 -77.3900 48° Northeast 450 518 45,000  Level Washington Center
01:26PM 37.9050 -77.2656 49° Northeast 455 524 45,000  Level Washington Center
01:27PM 37.9858 -77.1408 51° Northeast 455 524 45,000  Level Washington Center
01:28PM 38.0689 -77.0214 49° Northeast 455 524 45,000  Level Washington Center
01:29PM 38.1514 -76.8989 49° Northeast 455 524 45,000  Level Washington Center
01:30PM 38.2361 -76.7761 49° Northeast 455 524 45,000  Level Washington Center
01:31PM 38.3144 -76.6556 50° Northeast 450 518 45,000 -1,200 Level Washington Center
01:32PM 38.3967 -76.5347 49° Northeast 450 518 42,600 -2,400 Descending Washington Center
01:34PM 38.4792 -76.4058 51° Northeast 450 518 39,800 -2,880 Descending Washington Center
01:35PM 38.5800 -76.2556 49° Northeast 456 525 36,400 -3,120 Descending Washington Center
01:36PM 38.6642 -76.1286 50° Northeast 456 525 33,600 -2,760 Descending Washington Center
01:37PM 38.7439 -76.0017 51° Northeast 456 525 30,800 -2,340 Descending Washington Center
01:38PM 38.8150 -75.8633 57° Northeast 451 519 29,000 -960 Descending Washington Center
01:39PM 38.8550 -75.7064 72° East 451 519 29,000  Level Washington Center
01:40PM 38.8967 -75.5489 71° East 451 519 29,000  Level Washington Center
01:41PM 38.9444 -75.3889 69° East 463 533 29,000  Level Washington Center
01:42PM 39.0108 -75.2469 59° Northeast 468 539 29,000  Level Washington Center
01:43PM 39.0789 -75.0997 59° Northeast 468 539 29,000  Level Washington Center
01:44PM 39.1533 -74.9519 57° Northeast 481 554 29,000  Level Washington Center
01:45PM 39.2233 -74.8039 59° Northeast 481 554 29,000 -180 Level Washington Center
01:47PM 39.3619 -74.5142 58° Northeast 501 577 28,500 -1,260 Descending New York Center
01:48PM 39.4253 -74.3642 61° Northeast 489 563 25,400 -2,940 Descending New York Center
01:49PM 39.4878 -74.2222 60° Northeast 460 529 22,600 -2,220 Descending New York Center
01:50PM 39.5539 -74.0989 55° Northeast 430 495 20,900 -1,920 Descending New York Center
01:51PM 39.6172 -73.9967 51° Northeast 404 465 18,900 -2,040 Descending New York Center
01:52PM 39.6869 -73.8892 50° Northeast 398 458 16,900 -1,920 Descending New York Center
01:53PM 39.7644 -73.7928 44° Northeast 385 443 15,100 -1,020 Descending New York Center
01:54PM 39.8483 -73.6908 43° Northeast 375 432 15,000 -60 Descending New York Center
01:55PM 39.9278 -73.5914 44° Northeast 375 432 15,000  Level New York Center
01:56PM 40.0050 -73.4969 43° Northeast 375 432 15,000 -120 Level New York Center
01:58PM 40.1381 -73.3275 44° Northeast 390 449 14,800 -1,020 Descending Boston Center
01:59PM 40.2264 -73.2119 45° Northeast 378 435 12,000 -2,520 Descending Boston Center
02:00PM 40.2978 -73.1231 44° Northeast 366 421 9,800 -1,500 Descending Boston Center
02:01PM 40.3608 -73.0392 45° Northeast 336 387 9,000 -840 Descending Boston Center
02:02PM 40.4217 -72.9608 44° Northeast 317 365 8,200 -600 Descending Boston Center
02:04PM 40.5833 -72.7667 42° Northeast 305 351 7,100 -600 Descending New York TRACON
02:05PM 40.6333 -72.6833 52° Northeast 301 346 6,200 -1,440 Descending New York TRACON
02:06PM 40.7000 -72.6167 37° Northeast 288 331 4,300 -1,620 Descending New York TRACON
02:07PM 40.7500 -72.5333 52° Northeast 275 316 3,000 -660 Descending New York TRACON
02:08PM 40.8000 -72.4667 45° Northeast 279 321 3,000 -480 Level New York TRACON
02:09PM 40.8500 -72.4000 45° Northeast 249 287 2,100 -480 Descending New York TRACON
02:10PM 40.9167 -72.3667 21° North 212 244 2,000 -60 Descending New York TRACON
02:11PM 40.9500 -72.3500 21° North 167 192 2,000 -480 Level New York TRACON
02:12PM 40.9667 -72.3000 66° East 129 148 1,100 -840 Descending New York TRACON